sensor_id;sensor_type;location;lat;lon;timestamp;temperature;humidity
23329;DHT22;11836;51.050;3.716;2023-04-03T00:00:29;15.00;99.90
23329;DHT22;11836;51.050;3.716;2023-04-03T00:02:55;15.00;99.90
23329;DHT22;11836;51.050;3.716;2023-04-03T00:05:20;15.00;99.90
23329;DHT22;11836;51.050;3.716;2023-04-03T00:07:46;15.00;99.90
23329;DHT22;11836;51.050;3.716;2023-04-03T00:10:12;14.90;99.90
23329;DHT22;11836;51.050;3.716;2023-04-03T00:12:39;14.90;99.90
23329;DHT22;11836;51.050;3.716;2023-04-03T00:15:05;14.90;99.90
23329;DHT22;11836;51.050;3.716;2023-04-03T00:17:30;14.90;99.90
23329;DHT22;11836;51.050;3.716;2023-04-03T00:19:56;14.80;99.90
23329;DHT22;11836;51.050;3.716;2023-04-03T00:22:22;14.90;99.90
23329;DHT22;11836;51.050;3.716;2023-04-03T00:24:50;14.80;99.90
23329;DHT22;11836;51.050;3.716;2023-04-03T00:27:16;14.90;99.90
23329;DHT22;11836;51.050;3.716;2023-04-03T00:29:41;14.80;99.90
23329;DHT22;11836;51.050;3.716;2023-04-03T00:32:07;14.80;99.90
23329;DHT22;11836;51.050;3.716;2023-04-03T00:34:32;14.80;99.90
23329;DHT22;11836;51.050;3.716;2023-04-03T00:36:58;14.80;99.90
23329;DHT22;11836;51.050;3.716;2023-04-03T00:39:24;14.80;99.90
23329;DHT22;11836;51.050;3.716;2023-04-03T00:41:49;14.80;99.90
23329;DHT22;11836;51.050;3.716;2023-04-03T00:47:04;14.80;99.90
23329;DHT22;11836;51.050;3.716;2023-04-03T00:49:31;14.70;99.90
23329;DHT22;11836;51.050;3.716;2023-04-03T00:51:57;14.70;99.90
23329;DHT22;11836;51.050;3.716;2023-04-03T00:54:24;14.70;99.90
23329;DHT22;11836;51.050;3.716;2023-04-03T00:56:51;14.70;99.90
23329;DHT22;11836;51.050;3.716;2023-04-03T00:59:21;14.70;99.90
23329;DHT22;11836;51.050;3.716;2023-04-03T01:01:51;14.70;99.90
23329;DHT22;11836;51.050;3.716;2023-04-03T01:07:15;14.60;99.90
23329;DHT22;11836;51.050;3.716;2023-04-03T01:09:42;14.60;99.90
23329;DHT22;11836;51.050;3.716;2023-04-03T01:12:21;14.60;99.90
23329;DHT22;11836;51.050;3.716;2023-04-03T01:14:50;14.60;99.90
23329;DHT22;11836;51.050;3.716;2023-04-03T01:17:39;14.60;99.90
23329;DHT22;11836;51.050;3.716;2023-04-03T01:25:49;14.50;99.90
23329;DHT22;11836;51.050;3.716;2023-04-03T01:31:06;14.50;99.90
23329;DHT22;11836;51.050;3.716;2023-04-03T01:33:44;14.50;99.90
23329;DHT22;11836;51.050;3.716;2023-04-03T01:36:18;14.40;99.90
23329;DHT22;11836;51.050;3.716;2023-04-03T01:38:44;14.40;99.90
23329;DHT22;11836;51.050;3.716;2023-04-03T01:41:10;14.40;99.90
23329;DHT22;11836;51.050;3.716;2023-04-03T01:43:35;14.40;99.90
23329;DHT22;11836;51.050;3.716;2023-04-03T01:46:01;14.40;99.90
23329;DHT22;11836;51.050;3.716;2023-04-03T01:48:27;14.40;99.90
23329;DHT22;11836;51.050;3.716;2023-04-03T01:50:53;14.40;99.90
23329;DHT22;11836;51.050;3.716;2023-04-03T01:53:19;14.40;99.90
23329;DHT22;11836;51.050;3.716;2023-04-03T01:55:45;14.40;99.90
23329;DHT22;11836;51.050;3.716;2023-04-03T01:58:10;14.30;99.90
23329;DHT22;11836;51.050;3.716;2023-04-03T02:00:42;14.30;99.90
23329;DHT22;11836;51.050;3.716;2023-04-03T02:03:08;14.30;99.90
23329;DHT22;11836;51.050;3.716;2023-04-03T02:05:33;14.30;99.90
23329;DHT22;11836;51.050;3.716;2023-04-03T02:07:59;14.30;99.90
23329;DHT22;11836;51.050;3.716;2023-04-03T02:10:26;14.30;99.90
23329;DHT22;11836;51.050;3.716;2023-04-03T02:12:51;14.30;99.90
23329;DHT22;11836;51.050;3.716;2023-04-03T02:15:18;14.30;99.90
23329;DHT22;11836;51.050;3.716;2023-04-03T02:17:44;14.30;99.90
23329;DHT22;11836;51.050;3.716;2023-04-03T02:20:09;14.30;99.90
23329;DHT22;11836;51.050;3.716;2023-04-03T02:22:35;14.20;99.90
23329;DHT22;11836;51.050;3.716;2023-04-03T02:25:01;14.20;99.90
23329;DHT22;11836;51.050;3.716;2023-04-03T02:27:27;14.20;99.90
23329;DHT22;11836;51.050;3.716;2023-04-03T02:29:53;14.20;99.90
23329;DHT22;11836;51.050;3.716;2023-04-03T02:32:18;14.20;99.90
23329;DHT22;11836;51.050;3.716;2023-04-03T02:34:44;14.10;99.90
23329;DHT22;11836;51.050;3.716;2023-04-03T02:37:10;14.10;99.90
23329;DHT22;11836;51.050;3.716;2023-04-03T02:39:35;14.20;99.90
23329;DHT22;11836;51.050;3.716;2023-04-03T02:42:01;14.10;99.90
23329;DHT22;11836;51.050;3.716;2023-04-03T02:44:27;14.10;99.90
23329;DHT22;11836;51.050;3.716;2023-04-03T02:46:52;14.10;99.90
23329;DHT22;11836;51.050;3.716;2023-04-03T02:49:18;14.10;99.90
23329;DHT22;11836;51.050;3.716;2023-04-03T02:51:44;14.10;99.90
23329;DHT22;11836;51.050;3.716;2023-04-03T02:54:09;14.10;99.90
23329;DHT22;11836;51.050;3.716;2023-04-03T02:56:35;14.10;99.90
23329;DHT22;11836;51.050;3.716;2023-04-03T02:59:01;14.10;99.90
23329;DHT22;11836;51.050;3.716;2023-04-03T03:01:27;14.00;99.90
23329;DHT22;11836;51.050;3.716;2023-04-03T03:03:57;14.00;99.90
23329;DHT22;11836;51.050;3.716;2023-04-03T03:06:22;14.00;99.90
23329;DHT22;11836;51.050;3.716;2023-04-03T03:08:48;14.00;99.90
23329;DHT22;11836;51.050;3.716;2023-04-03T03:11:14;14.00;99.90
23329;DHT22;11836;51.050;3.716;2023-04-03T03:13:40;13.90;99.90
23329;DHT22;11836;51.050;3.716;2023-04-03T03:16:06;14.00;99.90
23329;DHT22;11836;51.050;3.716;2023-04-03T03:18:32;14.00;99.90
23329;DHT22;11836;51.050;3.716;2023-04-03T03:21:00;14.00;99.90
23329;DHT22;11836;51.050;3.716;2023-04-03T03:23:27;14.00;99.90
23329;DHT22;11836;51.050;3.716;2023-04-03T03:25:58;13.90;99.90
23329;DHT22;11836;51.050;3.716;2023-04-03T03:28:24;13.90;99.90
23329;DHT22;11836;51.050;3.716;2023-04-03T03:30:50;13.90;99.90
23329;DHT22;11836;51.050;3.716;2023-04-03T03:33:16;13.90;99.90
23329;DHT22;11836;51.050;3.716;2023-04-03T03:35:43;13.90;99.90
23329;DHT22;11836;51.050;3.716;2023-04-03T03:38:09;13.60;99.90
23329;DHT22;11836;51.050;3.716;2023-04-03T03:40:34;13.90;99.90
23329;DHT22;11836;51.050;3.716;2023-04-03T03:43:00;13.90;99.90
23329;DHT22;11836;51.050;3.716;2023-04-03T03:45:26;13.90;99.90
23329;DHT22;11836;51.050;3.716;2023-04-03T03:47:52;13.90;99.90
23329;DHT22;11836;51.050;3.716;2023-04-03T03:50:18;13.90;99.90
23329;DHT22;11836;51.050;3.716;2023-04-03T03:52:44;13.80;99.90
23329;DHT22;11836;51.050;3.716;2023-04-03T03:55:10;13.90;99.90
23329;DHT22;11836;51.050;3.716;2023-04-03T03:57:36;13.90;99.90
23329;DHT22;11836;51.050;3.716;2023-04-03T04:00:02;13.90;99.90
23329;DHT22;11836;51.050;3.716;2023-04-03T04:02:28;13.90;99.90
23329;DHT22;11836;51.050;3.716;2023-04-03T04:04:54;13.90;99.90
23329;DHT22;11836;51.050;3.716;2023-04-03T04:07:20;13.90;99.90
23329;DHT22;11836;51.050;3.716;2023-04-03T04:09:46;13.90;99.90
23329;DHT22;11836;51.050;3.716;2023-04-03T04:12:11;13.90;99.90
23329;DHT22;11836;51.050;3.716;2023-04-03T04:14:37;13.90;99.90
23329;DHT22;11836;51.050;3.716;2023-04-03T04:17:03;13.90;99.90
23329;DHT22;11836;51.050;3.716;2023-04-03T04:19:28;13.90;99.90
23329;DHT22;11836;51.050;3.716;2023-04-03T04:21:54;13.80;99.90
23329;DHT22;11836;51.050;3.716;2023-04-03T04:24:20;13.90;99.90
23329;DHT22;11836;51.050;3.716;2023-04-03T04:26:45;13.90;99.90
23329;DHT22;11836;51.050;3.716;2023-04-03T04:29:11;13.90;99.90
23329;DHT22;11836;51.050;3.716;2023-04-03T04:31:37;13.90;99.90
23329;DHT22;11836;51.050;3.716;2023-04-03T04:34:02;13.90;99.90
23329;DHT22;11836;51.050;3.716;2023-04-03T04:36:28;13.90;99.90
23329;DHT22;11836;51.050;3.716;2023-04-03T04:38:54;13.90;99.90
23329;DHT22;11836;51.050;3.716;2023-04-03T04:41:20;13.90;99.90
23329;DHT22;11836;51.050;3.716;2023-04-03T04:44:07;13.80;99.90
23329;DHT22;11836;51.050;3.716;2023-04-03T04:46:33;13.80;99.90
23329;DHT22;11836;51.050;3.716;2023-04-03T04:48:59;13.80;99.90
23329;DHT22;11836;51.050;3.716;2023-04-03T04:51:24;13.80;99.90
23329;DHT22;11836;51.050;3.716;2023-04-03T04:53:51;13.80;99.90
23329;DHT22;11836;51.050;3.716;2023-04-03T04:56:16;13.80;99.90
23329;DHT22;11836;51.050;3.716;2023-04-03T04:58:42;13.80;99.90
23329;DHT22;11836;51.050;3.716;2023-04-03T05:01:09;13.80;99.90
23329;DHT22;11836;51.050;3.716;2023-04-03T05:03:35;13.80;99.90
23329;DHT22;11836;51.050;3.716;2023-04-03T05:06:02;13.80;99.90
23329;DHT22;11836;51.050;3.716;2023-04-03T05:08:27;13.80;99.90
23329;DHT22;11836;51.050;3.716;2023-04-03T05:10:53;13.80;99.90
23329;DHT22;11836;51.050;3.716;2023-04-03T05:13:19;13.80;99.90
23329;DHT22;11836;51.050;3.716;2023-04-03T05:15:45;13.80;99.90
23329;DHT22;11836;51.050;3.716;2023-04-03T05:18:12;13.80;99.90
23329;DHT22;11836;51.050;3.716;2023-04-03T05:20:37;13.80;99.90
23329;DHT22;11836;51.050;3.716;2023-04-03T05:23:03;13.80;99.90
23329;DHT22;11836;51.050;3.716;2023-04-03T05:25:29;13.70;99.90
23329;DHT22;11836;51.050;3.716;2023-04-03T05:27:55;13.70;99.90
23329;DHT22;11836;51.050;3.716;2023-04-03T05:30:23;13.70;99.90
23329;DHT22;11836;51.050;3.716;2023-04-03T05:32:49;13.70;99.90
23329;DHT22;11836;51.050;3.716;2023-04-03T05:35:15;13.70;99.90
23329;DHT22;11836;51.050;3.716;2023-04-03T05:37:41;13.70;99.90
23329;DHT22;11836;51.050;3.716;2023-04-03T05:40:07;13.70;99.90
23329;DHT22;11836;51.050;3.716;2023-04-03T05:42:33;13.70;99.90
23329;DHT22;11836;51.050;3.716;2023-04-03T05:45:00;13.70;99.90
23329;DHT22;11836;51.050;3.716;2023-04-03T05:47:25;13.70;99.90
23329;DHT22;11836;51.050;3.716;2023-04-03T05:49:51;13.70;99.90
23329;DHT22;11836;51.050;3.716;2023-04-03T05:52:20;13.70;99.90
23329;DHT22;11836;51.050;3.716;2023-04-03T05:54:46;13.70;99.90
23329;DHT22;11836;51.050;3.716;2023-04-03T05:57:14;13.70;99.90
23329;DHT22;11836;51.050;3.716;2023-04-03T05:59:42;13.80;99.90
23329;DHT22;11836;51.050;3.716;2023-04-03T06:02:13;13.80;99.90
23329;DHT22;11836;51.050;3.716;2023-04-03T06:04:39;13.80;99.90
23329;DHT22;11836;51.050;3.716;2023-04-03T06:07:05;13.80;99.90
23329;DHT22;11836;51.050;3.716;2023-04-03T06:09:32;13.80;99.90
23329;DHT22;11836;51.050;3.716;2023-04-03T06:12:01;13.90;99.90
23329;DHT22;11836;51.050;3.716;2023-04-03T06:14:33;13.90;99.90
23329;DHT22;11836;51.050;3.716;2023-04-03T06:16:59;14.00;99.90
23329;DHT22;11836;51.050;3.716;2023-04-03T06:19:25;14.00;99.60
23329;DHT22;11836;51.050;3.716;2023-04-03T06:21:51;14.00;98.90
23329;DHT22;11836;51.050;3.716;2023-04-03T06:24:17;14.00;98.60
23329;DHT22;11836;51.050;3.716;2023-04-03T06:26:44;14.10;98.70
23329;DHT22;11836;51.050;3.716;2023-04-03T06:29:09;14.20;98.80
23329;DHT22;11836;51.050;3.716;2023-04-03T06:31:36;14.30;98.80
23329;DHT22;11836;51.050;3.716;2023-04-03T06:34:05;14.40;98.90
23329;DHT22;11836;51.050;3.716;2023-04-03T06:36:31;14.50;98.90
23329;DHT22;11836;51.050;3.716;2023-04-03T06:38:57;14.60;99.40
23329;DHT22;11836;51.050;3.716;2023-04-03T06:41:23;14.80;99.10
23329;DHT22;11836;51.050;3.716;2023-04-03T06:43:48;14.90;99.50
23329;DHT22;11836;51.050;3.716;2023-04-03T06:46:20;15.10;99.70
23329;DHT22;11836;51.050;3.716;2023-04-03T06:48:46;15.30;99.70
23329;DHT22;11836;51.050;3.716;2023-04-03T06:51:25;15.50;99.60
23329;DHT22;11836;51.050;3.716;2023-04-03T06:53:54;15.70;99.40
23329;DHT22;11836;51.050;3.716;2023-04-03T06:56:21;15.80;99.30
23329;DHT22;11836;51.050;3.716;2023-04-03T06:58:48;16.00;99.30
23329;DHT22;11836;51.050;3.716;2023-04-03T07:01:16;16.20;99.20
23329;DHT22;11836;51.050;3.716;2023-04-03T07:03:43;16.30;99.10
23329;DHT22;11836;51.050;3.716;2023-04-03T07:06:11;16.50;99.00
23329;DHT22;11836;51.050;3.716;2023-04-03T07:08:37;16.70;98.80
23329;DHT22;11836;51.050;3.716;2023-04-03T07:11:16;16.80;98.80
23329;DHT22;11836;51.050;3.716;2023-04-03T07:13:41;17.00;98.70
23329;DHT22;11836;51.050;3.716;2023-04-03T07:16:07;17.10;98.60
23329;DHT22;11836;51.050;3.716;2023-04-03T07:18:42;17.20;98.50
23329;DHT22;11836;51.050;3.716;2023-04-03T07:21:21;17.40;98.20
23329;DHT22;11836;51.050;3.716;2023-04-03T07:23:51;17.50;97.80
23329;DHT22;11836;51.050;3.716;2023-04-03T07:26:52;17.60;97.70
23329;DHT22;11836;51.050;3.716;2023-04-03T07:29:18;17.70;97.60
23329;DHT22;11836;51.050;3.716;2023-04-03T07:31:44;17.70;97.50
23329;DHT22;11836;51.050;3.716;2023-04-03T07:34:10;17.80;97.60
23329;DHT22;11836;51.050;3.716;2023-04-03T07:36:37;17.90;97.40
23329;DHT22;11836;51.050;3.716;2023-04-03T07:39:03;17.90;97.30
23329;DHT22;11836;51.050;3.716;2023-04-03T07:41:30;18.00;97.40
23329;DHT22;11836;51.050;3.716;2023-04-03T07:43:56;18.10;97.30
23329;DHT22;11836;51.050;3.716;2023-04-03T07:46:23;18.20;97.30
23329;DHT22;11836;51.050;3.716;2023-04-03T07:48:49;18.20;97.20
23329;DHT22;11836;51.050;3.716;2023-04-03T07:51:15;18.30;97.00
23329;DHT22;11836;51.050;3.716;2023-04-03T07:53:41;18.30;97.00
23329;DHT22;11836;51.050;3.716;2023-04-03T07:56:13;18.30;96.90
23329;DHT22;11836;51.050;3.716;2023-04-03T07:58:38;18.40;96.80
23329;DHT22;11836;51.050;3.716;2023-04-03T08:01:04;18.40;96.70
23329;DHT22;11836;51.050;3.716;2023-04-03T08:03:30;18.50;96.50
23329;DHT22;11836;51.050;3.716;2023-04-03T08:06:02;18.50;96.40
23329;DHT22;11836;51.050;3.716;2023-04-03T08:08:28;18.50;96.30
23329;DHT22;11836;51.050;3.716;2023-04-03T08:10:59;18.50;96.30
23329;DHT22;11836;51.050;3.716;2023-04-03T08:13:26;18.50;96.20
23329;DHT22;11836;51.050;3.716;2023-04-03T08:15:52;18.60;96.10
23329;DHT22;11836;51.050;3.716;2023-04-03T08:18:18;18.60;96.10
23329;DHT22;11836;51.050;3.716;2023-04-03T08:20:47;18.60;96.00
23329;DHT22;11836;51.050;3.716;2023-04-03T08:23:13;18.60;96.00
23329;DHT22;11836;51.050;3.716;2023-04-03T08:25:41;18.60;96.10
23329;DHT22;11836;51.050;3.716;2023-04-03T08:28:08;18.60;96.00
23329;DHT22;11836;51.050;3.716;2023-04-03T08:30:34;18.70;96.10
23329;DHT22;11836;51.050;3.716;2023-04-03T08:33:01;18.60;96.00
23329;DHT22;11836;51.050;3.716;2023-04-03T08:35:27;18.70;96.00
23329;DHT22;11836;51.050;3.716;2023-04-03T08:37:53;18.70;96.10
23329;DHT22;11836;51.050;3.716;2023-04-03T08:40:19;18.60;95.90
23329;DHT22;11836;51.050;3.716;2023-04-03T08:45:57;18.70;95.90
23329;DHT22;11836;51.050;3.716;2023-04-03T08:48:38;18.60;96.50
23329;DHT22;11836;51.050;3.716;2023-04-03T08:51:15;18.70;96.10
23329;DHT22;11836;51.050;3.716;2023-04-03T08:54:05;18.60;96.10
23329;DHT22;11836;51.050;3.716;2023-04-03T08:56:33;18.60;96.10
23329;DHT22;11836;51.050;3.716;2023-04-03T08:59:05;18.60;96.10
23329;DHT22;11836;51.050;3.716;2023-04-03T09:01:39;18.60;96.40
23329;DHT22;11836;51.050;3.716;2023-04-03T09:04:13;18.60;96.40
23329;DHT22;11836;51.050;3.716;2023-04-03T09:06:39;18.60;96.20
23329;DHT22;11836;51.050;3.716;2023-04-03T09:09:15;18.50;96.50
23329;DHT22;11836;51.050;3.716;2023-04-03T09:12:06;18.60;96.60
23329;DHT22;11836;51.050;3.716;2023-04-03T09:14:50;18.50;96.60
23329;DHT22;11836;51.050;3.716;2023-04-03T09:20:19;18.40;95.60
23329;DHT22;11836;51.050;3.716;2023-04-03T09:22:50;18.40;95.80
23329;DHT22;11836;51.050;3.716;2023-04-03T09:25:23;18.30;94.20
23329;DHT22;11836;51.050;3.716;2023-04-03T09:27:51;18.30;93.60
23329;DHT22;11836;51.050;3.716;2023-04-03T09:30:23;18.20;92.90
23329;DHT22;11836;51.050;3.716;2023-04-03T09:32:54;18.20;92.40
23329;DHT22;11836;51.050;3.716;2023-04-03T09:35:29;18.20;92.30
23329;DHT22;11836;51.050;3.716;2023-04-03T09:38:19;18.20;92.50
23329;DHT22;11836;51.050;3.716;2023-04-03T09:41:13;18.10;92.90
23329;DHT22;11836;51.050;3.716;2023-04-03T09:43:52;18.10;92.70
23329;DHT22;11836;51.050;3.716;2023-04-03T09:48:59;18.10;93.60
23329;DHT22;11836;51.050;3.716;2023-04-03T09:51:26;18.20;93.90
23329;DHT22;11836;51.050;3.716;2023-04-03T09:53:53;18.20;94.00
23329;DHT22;11836;51.050;3.716;2023-04-03T09:56:24;18.20;93.70
23329;DHT22;11836;51.050;3.716;2023-04-03T10:01:33;18.20;93.80
23329;DHT22;11836;51.050;3.716;2023-04-03T10:04:12;18.00;94.20
23329;DHT22;11836;51.050;3.716;2023-04-03T10:06:45;18.00;94.20
23329;DHT22;11836;51.050;3.716;2023-04-03T10:09:24;17.90;94.30
23329;DHT22;11836;51.050;3.716;2023-04-03T10:14:31;17.70;94.60
23329;DHT22;11836;51.050;3.716;2023-04-03T10:22:42;17.50;94.80
23329;DHT22;11836;51.050;3.716;2023-04-03T10:31:35;17.30;95.00
23329;DHT22;11836;51.050;3.716;2023-04-03T10:34:06;17.30;95.20
23329;DHT22;11836;51.050;3.716;2023-04-03T10:42:46;17.10;95.30
23329;DHT22;11836;51.050;3.716;2023-04-03T10:45:30;17.00;95.30
23329;DHT22;11836;51.050;3.716;2023-04-03T10:48:11;17.00;95.20
23329;DHT22;11836;51.050;3.716;2023-04-03T10:56:46;16.90;95.60
23329;DHT22;11836;51.050;3.716;2023-04-03T10:58:54;16.80;95.80
23329;DHT22;11836;51.050;3.716;2023-04-03T11:01:31;16.80;96.40
23329;DHT22;11836;51.050;3.716;2023-04-03T11:03:59;16.80;96.80
23329;DHT22;11836;51.050;3.716;2023-04-03T11:09:34;16.80;96.80
23329;DHT22;11836;51.050;3.716;2023-04-03T11:12:26;16.70;96.60
23329;DHT22;11836;51.050;3.716;2023-04-03T11:14:54;16.70;96.50
23329;DHT22;11836;51.050;3.716;2023-04-03T11:17:46;16.70;97.00
23329;DHT22;11836;51.050;3.716;2023-04-03T11:20:23;16.70;96.80
23329;DHT22;11836;51.050;3.716;2023-04-03T11:23:29;16.60;96.80
23329;DHT22;11836;51.050;3.716;2023-04-03T11:26:09;16.60;96.40
23329;DHT22;11836;51.050;3.716;2023-04-03T11:28:36;16.60;96.40
23329;DHT22;11836;51.050;3.716;2023-04-03T11:36:33;16.50;95.80
23329;DHT22;11836;51.050;3.716;2023-04-03T11:39:25;16.40;96.00
23329;DHT22;11836;51.050;3.716;2023-04-03T11:41:54;16.50;95.80
23329;DHT22;11836;51.050;3.716;2023-04-03T11:44:37;16.40;95.90
23329;DHT22;11836;51.050;3.716;2023-04-03T11:50:05;16.40;96.00
23329;DHT22;11836;51.050;3.716;2023-04-03T12:00:49;16.30;95.30
23329;DHT22;11836;51.050;3.716;2023-04-03T12:14:01;16.20;95.10
23329;DHT22;11836;51.050;3.716;2023-04-03T12:29:47;16.00;94.80
23329;DHT22;11836;51.050;3.716;2023-04-03T12:32:44;16.10;94.90
23329;DHT22;11836;51.050;3.716;2023-04-03T12:35:30;16.00;95.10
23329;DHT22;11836;51.050;3.716;2023-04-03T12:38:37;16.00;95.50
23329;DHT22;11836;51.050;3.716;2023-04-03T12:44:49;16.00;95.30
23329;DHT22;11836;51.050;3.716;2023-04-03T12:47:43;16.00;95.00
23329;DHT22;11836;51.050;3.716;2023-04-03T12:50:27;16.00;95.10
23329;DHT22;11836;51.050;3.716;2023-04-03T12:53:12;15.90;94.90
23329;DHT22;11836;51.050;3.716;2023-04-03T12:55:39;15.90;95.00
23329;DHT22;11836;51.050;3.716;2023-04-03T12:58:15;16.00;95.10
23329;DHT22;11836;51.050;3.716;2023-04-03T13:00:42;15.90;95.60
23329;DHT22;11836;51.050;3.716;2023-04-03T13:03:24;15.90;95.60
23329;DHT22;11836;51.050;3.716;2023-04-03T13:05:50;16.00;95.40
23329;DHT22;11836;51.050;3.716;2023-04-03T13:08:17;16.00;95.50
23329;DHT22;11836;51.050;3.716;2023-04-03T13:10:57;16.00;95.40
23329;DHT22;11836;51.050;3.716;2023-04-03T13:13:23;16.00;95.20
23329;DHT22;11836;51.050;3.716;2023-04-03T13:15:49;16.00;95.30
23329;DHT22;11836;51.050;3.716;2023-04-03T13:21:00;15.90;95.40
23329;DHT22;11836;51.050;3.716;2023-04-03T13:23:27;16.00;95.40
23329;DHT22;11836;51.050;3.716;2023-04-03T13:25:53;15.90;95.10
23329;DHT22;11836;51.050;3.716;2023-04-03T13:28:22;16.00;95.20
23329;DHT22;11836;51.050;3.716;2023-04-03T13:31:19;16.00;95.20
23329;DHT22;11836;51.050;3.716;2023-04-03T13:36:40;16.00;95.00
23329;DHT22;11836;51.050;3.716;2023-04-03T13:39:22;16.00;95.00
23329;DHT22;11836;51.050;3.716;2023-04-03T13:41:50;16.00;94.80
23329;DHT22;11836;51.050;3.716;2023-04-03T13:49:38;16.00;94.20
23329;DHT22;11836;51.050;3.716;2023-04-03T13:52:30;16.00;94.50
23329;DHT22;11836;51.050;3.716;2023-04-03T13:55:23;16.00;94.20
23329;DHT22;11836;51.050;3.716;2023-04-03T14:00:21;16.00;94.20
23329;DHT22;11836;51.050;3.716;2023-04-03T14:02:55;16.00;94.10
23329;DHT22;11836;51.050;3.716;2023-04-03T14:05:21;16.00;94.00
23329;DHT22;11836;51.050;3.716;2023-04-03T14:07:51;16.00;94.50
23329;DHT22;11836;51.050;3.716;2023-04-03T14:10:17;16.00;94.10
23329;DHT22;11836;51.050;3.716;2023-04-03T14:12:43;16.00;93.90
23329;DHT22;11836;51.050;3.716;2023-04-03T14:15:22;16.00;93.60
23329;DHT22;11836;51.050;3.716;2023-04-03T14:17:50;16.00;93.50
23329;DHT22;11836;51.050;3.716;2023-04-03T14:20:23;16.00;93.40
23329;DHT22;11836;51.050;3.716;2023-04-03T14:22:49;16.00;93.40
23329;DHT22;11836;51.050;3.716;2023-04-03T14:25:15;16.00;93.50
23329;DHT22;11836;51.050;3.716;2023-04-03T14:27:47;16.00;93.50
23329;DHT22;11836;51.050;3.716;2023-04-03T14:30:26;16.00;93.30
23329;DHT22;11836;51.050;3.716;2023-04-03T14:32:53;16.00;93.40
23329;DHT22;11836;51.050;3.716;2023-04-03T14:35:20;16.00;93.60
23329;DHT22;11836;51.050;3.716;2023-04-03T14:37:47;16.00;93.50
23329;DHT22;11836;51.050;3.716;2023-04-03T14:40:16;16.00;93.50
23329;DHT22;11836;51.050;3.716;2023-04-03T14:42:43;16.00;92.90
23329;DHT22;11836;51.050;3.716;2023-04-03T14:45:11;16.00;92.90
23329;DHT22;11836;51.050;3.716;2023-04-03T14:47:47;16.00;92.60
23329;DHT22;11836;51.050;3.716;2023-04-03T14:50:19;16.00;92.80
23329;DHT22;11836;51.050;3.716;2023-04-03T14:52:47;16.00;92.60
23329;DHT22;11836;51.050;3.716;2023-04-03T14:55:16;16.10;92.60
23329;DHT22;11836;51.050;3.716;2023-04-03T14:57:42;16.00;92.30
23329;DHT22;11836;51.050;3.716;2023-04-03T15:00:13;16.00;92.40
23329;DHT22;11836;51.050;3.716;2023-04-03T15:02:39;16.00;92.50
23329;DHT22;11836;51.050;3.716;2023-04-03T15:05:08;16.00;92.20
23329;DHT22;11836;51.050;3.716;2023-04-03T15:07:45;16.10;92.20
23329;DHT22;11836;51.050;3.716;2023-04-03T15:10:16;16.10;92.80
23329;DHT22;11836;51.050;3.716;2023-04-03T15:12:43;16.10;92.60
23329;DHT22;11836;51.050;3.716;2023-04-03T15:15:09;16.10;92.60
23329;DHT22;11836;51.050;3.716;2023-04-03T15:17:42;16.10;93.00
23329;DHT22;11836;51.050;3.716;2023-04-03T15:20:14;16.10;92.90
23329;DHT22;11836;51.050;3.716;2023-04-03T15:22:40;16.10;92.60
23329;DHT22;11836;51.050;3.716;2023-04-03T15:25:06;16.10;92.70
23329;DHT22;11836;51.050;3.716;2023-04-03T15:27:31;16.10;93.00
23329;DHT22;11836;51.050;3.716;2023-04-03T15:29:57;16.10;92.40
23329;DHT22;11836;51.050;3.716;2023-04-03T15:32:23;16.10;92.50
23329;DHT22;11836;51.050;3.716;2023-04-03T15:34:49;16.20;93.10
23329;DHT22;11836;51.050;3.716;2023-04-03T15:37:15;16.20;93.10
23329;DHT22;11836;51.050;3.716;2023-04-03T15:39:40;16.20;93.20
23329;DHT22;11836;51.050;3.716;2023-04-03T15:42:06;16.20;93.00
23329;DHT22;11836;51.050;3.716;2023-04-03T15:44:35;16.20;92.70
23329;DHT22;11836;51.050;3.716;2023-04-03T15:47:01;16.30;92.40
23329;DHT22;11836;51.050;3.716;2023-04-03T15:49:27;16.20;92.20
23329;DHT22;11836;51.050;3.716;2023-04-03T15:51:53;16.20;92.00
23329;DHT22;11836;51.050;3.716;2023-04-03T15:54:19;16.30;92.40
23329;DHT22;11836;51.050;3.716;2023-04-03T15:56:46;16.30;92.60
23329;DHT22;11836;51.050;3.716;2023-04-03T15:59:11;16.30;92.20
23329;DHT22;11836;51.050;3.716;2023-04-03T16:01:38;16.30;92.20
23329;DHT22;11836;51.050;3.716;2023-04-03T16:04:05;16.30;91.90
23329;DHT22;11836;51.050;3.716;2023-04-03T16:06:32;16.30;91.60
23329;DHT22;11836;51.050;3.716;2023-04-03T16:08:59;16.30;91.60
23329;DHT22;11836;51.050;3.716;2023-04-03T16:11:27;16.30;91.70
23329;DHT22;11836;51.050;3.716;2023-04-03T16:13:53;16.30;91.30
23329;DHT22;11836;51.050;3.716;2023-04-03T16:16:19;16.30;91.40
23329;DHT22;11836;51.050;3.716;2023-04-03T16:18:45;16.40;91.10
23329;DHT22;11836;51.050;3.716;2023-04-03T16:21:17;16.30;91.30
23329;DHT22;11836;51.050;3.716;2023-04-03T16:23:44;16.30;91.10
23329;DHT22;11836;51.050;3.716;2023-04-03T16:26:10;16.30;91.30
23329;DHT22;11836;51.050;3.716;2023-04-03T16:28:39;16.30;91.30
23329;DHT22;11836;51.050;3.716;2023-04-03T16:31:06;16.30;91.50
23329;DHT22;11836;51.050;3.716;2023-04-03T16:33:53;16.30;91.50
23329;DHT22;11836;51.050;3.716;2023-04-03T16:36:30;16.30;91.90
23329;DHT22;11836;51.050;3.716;2023-04-03T16:38:55;16.30;92.10
23329;DHT22;11836;51.050;3.716;2023-04-03T16:41:21;16.30;92.00
23329;DHT22;11836;51.050;3.716;2023-04-03T16:43:46;16.30;92.20
23329;DHT22;11836;51.050;3.716;2023-04-03T16:46:12;16.30;92.00
23329;DHT22;11836;51.050;3.716;2023-04-03T16:48:40;16.30;92.10
23329;DHT22;11836;51.050;3.716;2023-04-03T16:51:09;16.30;92.10
23329;DHT22;11836;51.050;3.716;2023-04-03T16:53:34;16.30;92.30
23329;DHT22;11836;51.050;3.716;2023-04-03T16:56:01;16.30;92.30
23329;DHT22;11836;51.050;3.716;2023-04-03T16:58:27;16.30;92.20
23329;DHT22;11836;51.050;3.716;2023-04-03T17:00:56;16.30;91.70
23329;DHT22;11836;51.050;3.716;2023-04-03T17:03:25;16.30;91.60
23329;DHT22;11836;51.050;3.716;2023-04-03T17:05:51;16.30;91.80
23329;DHT22;11836;51.050;3.716;2023-04-03T17:08:17;16.20;91.90
23329;DHT22;11836;51.050;3.716;2023-04-03T17:10:43;16.30;92.00
23329;DHT22;11836;51.050;3.716;2023-04-03T17:13:09;16.20;91.00
23329;DHT22;11836;51.050;3.716;2023-04-03T17:15:34;16.30;90.80
23329;DHT22;11836;51.050;3.716;2023-04-03T17:18:00;16.30;90.70
23329;DHT22;11836;51.050;3.716;2023-04-03T17:20:26;16.30;90.70
23329;DHT22;11836;51.050;3.716;2023-04-03T17:22:52;16.30;90.60
23329;DHT22;11836;51.050;3.716;2023-04-03T17:25:27;16.30;90.70
23329;DHT22;11836;51.050;3.716;2023-04-03T17:27:53;16.30;91.10
23329;DHT22;11836;51.050;3.716;2023-04-03T17:30:18;16.30;91.20
23329;DHT22;11836;51.050;3.716;2023-04-03T17:32:44;16.20;91.30
23329;DHT22;11836;51.050;3.716;2023-04-03T17:35:10;16.30;91.30